createdAt,value
2022-09-21T00:02:15.047Z,15.35
2022-09-21T00:04:44.765Z,15.32
2022-09-21T00:07:17.162Z,18.23
2022-09-21T00:09:46.981Z,17.95
2022-09-21T00:12:17.083Z,16.55
2022-09-21T00:14:46.860Z,12.98
2022-09-21T00:17:16.603Z,15.13
2022-09-21T00:19:46.331Z,15.63
2022-09-21T00:22:18.733Z,17.20
2022-09-21T00:24:48.480Z,15.00
2022-09-21T00:27:18.230Z,14.80
2022-09-21T00:29:48.664Z,12.00
2022-09-21T00:32:18.703Z,11.80
2022-09-21T00:34:48.426Z,12.45
2022-09-21T00:37:20.799Z,14.02
2022-09-21T00:39:50.585Z,11.70
2022-09-21T00:42:22.537Z,16.58
2022-09-21T00:44:52.397Z,15.95
2022-09-21T00:47:25.439Z,13.30
2022-09-21T00:49:58.731Z,15.35
2022-09-21T00:52:34.318Z,19.88
2022-09-21T00:55:08.719Z,12.82
2022-09-21T00:57:39.853Z,13.50
2022-09-21T01:00:11.999Z,11.77
2022-09-21T01:02:42.045Z,15.20
2022-09-21T01:05:12.683Z,15.73
2022-09-21T01:07:47.907Z,14.77
2022-09-21T01:10:21.137Z,15.38
2022-09-21T01:13:05.810Z,17.33
2022-09-21T01:15:44.942Z,19.27
2022-09-21T01:18:20.834Z,14.38
2022-09-21T01:21:19.478Z,15.38
2022-09-21T01:24:21.168Z,15.27
2022-09-21T01:27:15.768Z,12.30
2022-09-21T01:29:52.697Z,15.15
2022-09-21T01:32:26.866Z,14.52
2022-09-21T01:35:01.441Z,12.43
2022-09-21T01:40:08.886Z,15.13
2022-09-21T01:42:41.113Z,16.00
2022-09-21T01:45:16.669Z,19.13
2022-09-21T01:47:49.430Z,15.43
2022-09-21T01:50:21.681Z,13.25
2022-09-21T01:52:55.938Z,15.82
2022-09-21T01:55:29.737Z,18.17
2022-09-21T01:58:04.254Z,17.80
2022-09-21T02:03:15.182Z,14.85
2022-09-21T02:05:45.585Z,15.25
2022-09-21T02:08:15.730Z,15.27
2022-09-21T02:10:50.134Z,12.52
2022-09-21T02:13:21.482Z,16.27
2022-09-21T02:16:05.630Z,14.77
2022-09-21T02:18:45.865Z,14.63
2022-09-21T02:21:24.830Z,16.15
2022-09-21T02:24:05.809Z,20.70
2022-09-21T02:26:42.647Z,21.40
2022-09-21T02:29:20.357Z,13.43
2022-09-21T02:31:58.084Z,17.20
2022-09-21T02:34:34.840Z,13.88
2022-09-21T02:37:10.498Z,20.13
2022-09-21T02:39:50.481Z,16.95
2022-09-21T02:42:26.770Z,14.85
2022-09-21T02:45:01.319Z,15.68
2022-09-21T02:50:10.398Z,16.77
2022-09-21T02:52:43.576Z,17.15
2022-09-21T02:55:15.910Z,14.85
2022-09-21T02:57:46.902Z,16.13
2022-09-21T03:00:18.422Z,14.48
2022-09-21T03:02:50.741Z,27.25
2022-09-21T03:05:20.511Z,14.63
2022-09-21T03:07:50.236Z,15.50
2022-09-21T03:10:20.240Z,14.23
2022-09-21T03:12:50.046Z,16.00
2022-09-21T03:15:20.174Z,13.40
2022-09-21T03:17:52.507Z,11.45
2022-09-21T03:20:22.383Z,15.60
2022-09-21T03:22:52.099Z,16.48
2022-09-21T03:25:22.911Z,14.77
2022-09-21T03:27:53.799Z,12.77
2022-09-21T03:30:23.764Z,16.08
2022-09-21T03:32:56.843Z,13.88
2022-09-21T03:35:28.063Z,13.48
2022-09-21T03:37:57.943Z,14.50
2022-09-21T03:40:27.881Z,14.75
2022-09-21T03:42:58.256Z,15.27
2022-09-21T03:45:28.008Z,16.42
2022-09-21T03:48:02.270Z,15.13
2022-09-21T03:50:32.682Z,16.67
2022-09-21T03:53:02.511Z,14.95
2022-09-21T03:55:32.701Z,16.80
2022-09-21T03:58:02.468Z,15.52
2022-09-21T04:00:33.093Z,14.73
2022-09-21T04:03:05.428Z,15.98
2022-09-21T04:05:35.180Z,18.25
2022-09-21T04:08:05.839Z,18.48
2022-09-21T04:10:35.558Z,18.55
2022-09-21T04:13:06.558Z,20.05
2022-09-21T04:15:36.611Z,21.83
2022-09-21T04:18:09.610Z,21.77
2022-09-21T04:20:39.320Z,22.48
2022-09-21T04:23:09.326Z,23.90
2022-09-21T04:25:39.037Z,18.00
2022-09-21T04:28:08.770Z,18.88
2022-09-21T04:30:38.495Z,17.48
2022-09-21T04:33:10.799Z,17.75
2022-09-21T04:35:41.126Z,15.82
2022-09-21T04:38:11.146Z,20.98
2022-09-21T04:40:40.895Z,19.15
2022-09-21T04:43:10.625Z,16.77
2022-09-21T04:45:40.586Z,23.00
2022-09-21T04:48:12.888Z,20.00
2022-09-21T04:50:42.649Z,20.10
2022-09-21T04:53:12.440Z,17.80
2022-09-21T04:55:42.139Z,19.58
2022-09-21T04:58:11.870Z,22.67
2022-09-21T05:00:41.671Z,20.70
2022-09-21T05:03:14.036Z,23.60
2022-09-21T05:05:49.791Z,20.48
2022-09-21T05:08:39.691Z,22.08
2022-09-21T05:11:07.095Z,19.90
2022-09-21T05:13:36.917Z,26.15
2022-09-21T05:16:07.018Z,20.70
2022-09-21T05:18:39.536Z,17.42
2022-09-21T05:21:09.305Z,24.90
2022-09-21T05:23:39.033Z,19.08
2022-09-21T05:26:08.915Z,21.90
2022-09-21T05:28:40.364Z,19.48
2022-09-21T05:31:25.596Z,17.38
2022-09-21T05:34:05.244Z,22.95
2022-09-21T05:36:48.328Z,20.05
2022-09-21T05:39:18.749Z,22.02
2022-09-21T05:41:49.222Z,27.52
2022-09-21T05:44:21.558Z,19.05
2022-09-21T05:46:56.880Z,19.73
2022-09-21T05:49:40.101Z,17.33
2022-09-21T05:52:17.988Z,22.08
2022-09-21T05:55:01.812Z,19.35
2022-09-21T05:57:41.411Z,21.48
2022-09-21T06:00:19.362Z,16.50
2022-09-21T06:03:07.161Z,15.35
2022-09-21T06:05:39.464Z,17.10
2022-09-21T06:08:09.411Z,16.13
2022-09-21T06:10:39.165Z,15.70
2022-09-21T06:13:09.396Z,13.57
2022-09-21T06:15:40.171Z,12.95
2022-09-21T06:18:14.269Z,11.77
2022-09-21T06:20:49.747Z,15.05
2022-09-21T06:23:19.486Z,16.95
2022-09-21T06:25:58.327Z,13.05
2022-09-21T06:28:29.769Z,12.90
2022-09-21T06:31:00.424Z,14.15
2022-09-21T06:33:30.188Z,14.75
2022-09-21T06:36:03.275Z,17.75
2022-09-21T06:38:35.260Z,11.68
2022-09-21T06:41:06.700Z,14.98
2022-09-21T06:43:36.490Z,11.68
2022-09-21T06:46:06.818Z,11.57
2022-09-21T06:48:37.547Z,11.10
2022-09-21T06:51:10.927Z,14.25
2022-09-21T06:53:40.678Z,14.43
2022-09-21T06:56:12.204Z,10.23
2022-09-21T06:58:42.237Z,13.50
2022-09-21T07:01:14.360Z,13.02
2022-09-21T07:03:45.582Z,15.32
2022-09-21T07:06:18.576Z,14.18
2022-09-21T07:11:41.460Z,13.25
2022-09-21T07:14:11.366Z,14.35
2022-09-21T07:16:41.292Z,12.68
2022-09-21T07:19:11.911Z,12.57
2022-09-21T07:21:44.585Z,15.73
2022-09-21T07:24:15.074Z,12.48
2022-09-21T07:26:44.840Z,11.70
2022-09-21T07:29:14.623Z,13.30
2022-09-21T07:31:48.114Z,13.88
2022-09-21T07:34:18.160Z,11.75
2022-09-21T07:36:50.598Z,12.27
2022-09-21T07:39:20.326Z,14.93
2022-09-21T07:41:50.124Z,14.18
2022-09-21T07:44:20.497Z,15.50
2022-09-21T07:46:51.465Z,11.82
2022-09-21T07:49:21.232Z,13.02
2022-09-21T07:51:54.331Z,15.43
2022-09-21T07:54:24.068Z,20.75
2022-09-21T07:57:06.405Z,12.50
2022-09-21T07:59:36.299Z,15.27
2022-09-21T08:02:06.180Z,14.63
2022-09-21T08:04:36.034Z,12.00
2022-09-21T08:07:09.041Z,13.80
2022-09-21T08:09:38.818Z,10.25
2022-09-21T08:12:08.980Z,13.20
2022-09-21T08:14:38.738Z,13.02
2022-09-21T08:17:08.576Z,13.73
2022-09-21T08:19:38.742Z,11.05
2022-09-21T08:22:12.153Z,11.43
2022-09-21T08:24:44.468Z,11.20
2022-09-21T08:27:14.311Z,9.40
2022-09-21T08:29:44.024Z,10.40
2022-09-21T08:32:33.106Z,9.13
2022-09-21T08:35:03.659Z,7.10
2022-09-21T08:37:36.695Z,8.98
2022-09-21T08:40:07.671Z,8.77
2022-09-21T08:42:48.705Z,9.05
2022-09-21T08:45:22.326Z,7.28
2022-09-21T08:47:54.982Z,6.35
2022-09-21T08:50:34.974Z,9.27
2022-09-21T08:53:10.686Z,6.93
2022-09-21T08:55:40.457Z,9.75
2022-09-21T08:58:23.004Z,7.03
2022-09-21T09:01:07.983Z,8.35
2022-09-21T09:03:51.189Z,7.40
2022-09-21T09:06:34.284Z,6.47
2022-09-21T09:09:37.289Z,8.32
2022-09-21T09:12:23.551Z,5.18
2022-09-21T09:15:31.651Z,7.82
2022-09-21T09:18:10.394Z,6.75
2022-09-21T09:20:43.780Z,5.85
2022-09-21T09:23:19.976Z,5.28
2022-09-21T09:25:54.252Z,6.40
2022-09-21T09:28:31.775Z,4.80
2022-09-21T09:31:05.130Z,6.68
2022-09-21T09:33:49.529Z,5.70
2022-09-21T09:36:34.742Z,8.88
2022-09-21T09:39:15.257Z,5.80
2022-09-21T09:42:04.697Z,3.15
2022-09-21T09:45:03.693Z,4.93
2022-09-21T09:47:44.868Z,3.45
2022-09-21T09:50:19.628Z,2.95
2022-09-21T09:52:50.203Z,8.07
2022-09-21T09:55:24.730Z,4.03
2022-09-21T09:57:59.066Z,3.72
2022-09-21T10:00:29.090Z,3.83
2022-09-21T10:03:00.730Z,3.15
2022-09-21T10:05:38.207Z,4.05
2022-09-21T10:08:08.067Z,4.15
2022-09-21T10:10:40.147Z,2.78
2022-09-21T10:13:28.405Z,4.93
2022-09-21T10:16:01.462Z,4.55
2022-09-21T10:18:38.624Z,4.63
2022-09-21T10:21:11.590Z,4.35
2022-09-21T10:23:41.807Z,2.78
2022-09-21T10:26:15.379Z,3.92
2022-09-21T10:29:01.524Z,4.00
2022-09-21T10:31:32.609Z,1.60
2022-09-21T10:34:14.671Z,2.40
2022-09-21T10:36:51.723Z,3.15
2022-09-21T10:39:27.460Z,5.78
2022-09-21T10:42:06.945Z,3.83
2022-09-21T10:44:42.592Z,2.58
2022-09-21T10:47:21.885Z,3.45
2022-09-21T10:49:54.883Z,4.00
2022-09-21T10:52:27.627Z,2.55
2022-09-21T10:54:59.121Z,6.45
2022-09-21T10:57:32.555Z,5.43
2022-09-21T11:00:31.821Z,3.53
2022-09-21T11:03:03.497Z,2.72
2022-09-21T11:05:37.429Z,1.88
2022-09-21T11:08:14.987Z,3.35
2022-09-21T11:10:53.181Z,2.88
2022-09-21T11:13:32.424Z,3.55
2022-09-21T11:16:13.953Z,3.35
2022-09-21T11:18:54.505Z,2.78
2022-09-21T11:21:34.387Z,2.10
2022-09-21T11:24:13.481Z,2.47
2022-09-21T11:26:48.623Z,2.40
2022-09-21T11:29:28.206Z,1.40
2022-09-21T11:32:19.318Z,2.97
2022-09-21T11:35:14.051Z,1.25
2022-09-21T11:37:53.439Z,1.25
2022-09-21T11:40:34.674Z,1.73
2022-09-21T11:43:23.553Z,1.45
2022-09-21T11:46:05.759Z,3.70
2022-09-21T11:48:54.062Z,1.50
2022-09-21T11:51:40.969Z,1.92
2022-09-21T11:54:44.819Z,3.00
2022-09-21T11:57:20.603Z,2.00
2022-09-21T12:00:05.375Z,1.20
2022-09-21T12:05:22.833Z,2.60
2022-09-21T12:08:07.007Z,2.55
2022-09-21T12:10:54.061Z,0.90
2022-09-21T12:13:33.775Z,2.88
2022-09-21T12:16:08.688Z,1.00
2022-09-21T12:18:48.111Z,1.00
2022-09-21T12:21:24.055Z,2.00
2022-09-21T12:23:57.740Z,1.48
2022-09-21T12:26:32.262Z,2.97
2022-09-21T12:29:05.134Z,1.65
2022-09-21T12:31:42.388Z,1.20
2022-09-21T12:34:18.864Z,1.50
2022-09-21T12:37:05.835Z,0.75
2022-09-21T12:39:42.346Z,0.85
2022-09-21T12:42:24.903Z,1.65
2022-09-21T12:44:58.636Z,1.30
2022-09-21T12:47:35.421Z,3.45
2022-09-21T12:50:10.845Z,1.75
2022-09-21T12:52:43.585Z,1.42
2022-09-21T12:55:33.101Z,1.45
2022-09-21T12:58:15.591Z,1.52
2022-09-21T13:00:52.336Z,1.60
2022-09-21T13:03:28.675Z,1.33
2022-09-21T13:06:28.604Z,1.98
2022-09-21T13:09:07.341Z,0.82
2022-09-21T13:11:54.467Z,0.65
2022-09-21T13:14:25.808Z,1.08
2022-09-21T13:17:03.068Z,2.10
2022-09-21T13:19:35.130Z,0.80
2022-09-21T13:22:19.983Z,2.15
2022-09-21T13:25:03.387Z,3.72
2022-09-21T13:28:04.410Z,1.20
2022-09-21T13:30:38.431Z,1.20
2022-09-21T13:33:35.454Z,1.92
2022-09-21T13:36:35.280Z,1.65
2022-09-21T13:39:20.588Z,3.10
2022-09-21T13:42:02.777Z,2.03
2022-09-21T13:44:46.296Z,1.00
2022-09-21T13:47:18.614Z,2.63
2022-09-21T13:49:57.170Z,1.77
2022-09-21T13:52:40.955Z,1.23
2022-09-21T13:55:30.784Z,1.90
2022-09-21T13:58:07.749Z,0.57
2022-09-21T14:00:40.611Z,2.30
2022-09-21T14:03:23.871Z,2.53
2022-09-21T14:05:56.455Z,1.38
2022-09-21T14:08:32.764Z,1.00
2022-09-21T14:11:06.386Z,1.10
2022-09-21T14:13:41.925Z,1.77
2022-09-21T14:16:45.846Z,1.60
2022-09-21T14:19:45.796Z,1.45
2022-09-21T14:22:45.719Z,3.17
2022-09-21T14:25:55.883Z,4.53
2022-09-21T14:28:37.527Z,1.00
2022-09-21T14:31:18.674Z,2.03
2022-09-21T14:33:52.337Z,1.90
2022-09-21T14:36:31.303Z,2.00
2022-09-21T14:39:04.535Z,2.60
2022-09-21T14:41:41.430Z,1.17
2022-09-21T14:44:21.452Z,1.10
2022-09-21T14:47:28.473Z,2.28
2022-09-21T14:50:15.048Z,1.90
2022-09-21T14:53:00.097Z,1.25
2022-09-21T14:58:27.718Z,2.10
2022-09-21T15:00:59.630Z,2.78
2022-09-21T15:03:59.746Z,2.22
2022-09-21T15:06:48.401Z,1.38
2022-09-21T15:09:46.133Z,2.50
2022-09-21T15:12:20.776Z,1.80
2022-09-21T15:15:02.203Z,2.30
2022-09-21T15:17:33.624Z,1.45
2022-09-21T15:20:24.477Z,2.63
2022-09-21T15:22:58.426Z,0.80
2022-09-21T15:25:31.703Z,1.10
2022-09-21T15:28:02.676Z,1.00
2022-09-21T15:30:35.351Z,1.23
2022-09-21T15:33:05.602Z,1.45
2022-09-21T15:35:38.291Z,1.38
2022-09-21T15:38:29.629Z,1.40
2022-09-21T15:41:03.785Z,1.45
2022-09-21T15:43:37.673Z,1.58
2022-09-21T15:46:09.987Z,0.95
2022-09-21T15:48:44.463Z,1.30
2022-09-21T15:51:24.707Z,2.00
2022-09-21T15:53:57.715Z,1.98
2022-09-21T15:56:30.311Z,2.83
2022-09-21T15:59:08.885Z,1.33
2022-09-21T16:01:42.782Z,2.03
2022-09-21T16:04:18.699Z,2.40
2022-09-21T16:07:02.766Z,1.25
2022-09-21T16:09:42.726Z,1.55
2022-09-21T16:12:45.154Z,1.42
2022-09-21T16:15:24.245Z,1.50
2022-09-21T16:18:02.805Z,1.83
2022-09-21T16:20:45.691Z,1.42
2022-09-21T16:23:20.695Z,1.33
2022-09-21T16:25:57.089Z,1.23
2022-09-21T16:28:39.164Z,3.28
2022-09-21T16:31:26.063Z,1.77
2022-09-21T16:34:06.361Z,2.50
2022-09-21T16:36:46.683Z,1.08
2022-09-21T16:39:22.494Z,0.85
2022-09-21T16:42:00.131Z,1.60
2022-09-21T16:44:40.981Z,2.13
2022-09-21T16:47:16.736Z,2.20
2022-09-21T16:49:46.635Z,1.35
2022-09-21T16:52:16.998Z,7.75
2022-09-21T16:54:49.804Z,4.53
2022-09-21T16:57:20.231Z,1.85
2022-09-21T16:59:50.629Z,2.38
2022-09-21T17:02:21.445Z,2.92
2022-09-21T17:04:51.546Z,4.57
2022-09-21T17:07:21.419Z,2.63
2022-09-21T17:09:53.800Z,3.92
2022-09-21T17:12:23.926Z,2.35
2022-09-21T17:14:54.209Z,2.17
2022-09-21T17:17:27.077Z,2.92
2022-09-21T17:19:57.147Z,3.67
2022-09-21T17:22:28.821Z,2.75
2022-09-21T17:25:01.344Z,2.63
2022-09-21T17:27:32.130Z,3.38
2022-09-21T17:30:03.442Z,2.22
2022-09-21T17:32:37.958Z,2.42
2022-09-21T17:35:19.506Z,3.08
2022-09-21T17:37:50.343Z,3.88
2022-09-21T17:40:24.174Z,2.33
2022-09-21T17:42:57.221Z,4.70
2022-09-21T17:45:36.050Z,2.92
2022-09-21T17:48:06.836Z,3.95
2022-09-21T17:50:36.975Z,3.28
2022-09-21T17:53:19.792Z,3.53
2022-09-21T17:55:56.301Z,3.28
2022-09-21T17:58:42.879Z,2.83
2022-09-21T18:01:25.208Z,2.88
2022-09-21T18:03:55.530Z,2.53
2022-09-21T18:06:26.115Z,2.45
2022-09-21T18:08:57.385Z,3.15
2022-09-21T18:12:04.093Z,5.00
2022-09-21T18:14:43.332Z,8.18
2022-09-21T18:17:35.653Z,5.88
2022-09-21T18:20:20.399Z,3.70
2022-09-21T18:25:29.458Z,5.93
2022-09-21T18:28:12.160Z,6.03
2022-09-21T18:30:50.551Z,5.40
2022-09-21T18:33:27.167Z,3.88
2022-09-21T18:36:07.021Z,4.05
2022-09-21T18:38:43.003Z,5.28
2022-09-21T18:41:21.608Z,5.85
2022-09-21T18:44:06.679Z,7.07
2022-09-21T18:46:43.628Z,6.35
2022-09-21T18:49:19.050Z,6.50
2022-09-21T18:51:55.569Z,6.10
2022-09-21T18:54:27.220Z,7.63
2022-09-21T18:56:58.878Z,4.88
2022-09-21T18:59:32.296Z,6.07
2022-09-21T19:02:02.787Z,6.93
2022-09-21T19:04:33.370Z,7.82
2022-09-21T19:07:10.807Z,8.32
2022-09-21T19:09:51.967Z,7.72
2022-09-21T19:12:30.233Z,8.57
2022-09-21T19:15:16.984Z,7.65
2022-09-21T19:18:04.313Z,6.32
2022-09-21T19:20:49.764Z,8.82
2022-09-21T19:23:31.661Z,5.55
2022-09-21T19:26:08.047Z,5.80
2022-09-21T19:29:03.983Z,7.88
2022-09-21T19:31:36.961Z,7.47
2022-09-21T19:34:15.947Z,7.70
2022-09-21T19:36:47.120Z,6.38
2022-09-21T19:39:18.249Z,5.63
2022-09-21T19:42:00.805Z,5.97
2022-09-21T19:44:50.114Z,6.13
2022-09-21T19:47:29.933Z,5.38
2022-09-21T19:50:08.744Z,5.07
2022-09-21T19:52:39.278Z,5.18
2022-09-21T19:55:27.608Z,13.68
2022-09-21T19:58:10.683Z,4.80
2022-09-21T20:00:40.566Z,5.82
2022-09-21T20:03:18.713Z,4.40
2022-09-21T20:05:55.746Z,5.63
2022-09-21T20:08:30.710Z,5.32
2022-09-21T20:11:08.256Z,4.32
2022-09-21T20:14:13.753Z,6.97
2022-09-21T20:16:49.232Z,6.35
2022-09-21T20:19:38.589Z,8.73
2022-09-21T20:22:15.181Z,8.27
2022-09-21T20:24:56.757Z,4.43
2022-09-21T20:27:34.820Z,6.57
2022-09-21T20:30:04.912Z,4.63
2022-09-21T20:32:38.454Z,7.22
2022-09-21T20:35:16.940Z,6.03
2022-09-21T20:37:48.538Z,4.88
2022-09-21T20:40:20.266Z,4.68
2022-09-21T20:42:50.097Z,3.80
2022-09-21T20:45:20.253Z,4.75
2022-09-21T20:47:52.228Z,3.78
2022-09-21T20:50:26.631Z,3.80
2022-09-21T20:52:56.944Z,3.90
2022-09-21T20:55:29.110Z,4.22
2022-09-21T20:57:59.254Z,4.90
2022-09-21T21:00:29.055Z,4.68
2022-09-21T21:03:00.045Z,5.75
2022-09-21T21:05:32.807Z,5.03
2022-09-21T21:08:04.645Z,4.50
2022-09-21T21:10:35.018Z,5.97
2022-09-21T21:13:04.869Z,6.55
2022-09-21T21:15:34.859Z,4.93
2022-09-21T21:18:04.589Z,4.53
2022-09-21T21:20:36.890Z,4.60
2022-09-21T21:23:08.173Z,4.05
2022-09-21T21:25:38.189Z,5.00
2022-09-21T21:28:08.396Z,4.90
2022-09-21T21:30:38.263Z,3.60
2022-09-21T21:33:08.081Z,5.10
2022-09-21T21:35:41.522Z,5.05
2022-09-21T21:38:13.429Z,8.10
2022-09-21T21:40:43.189Z,5.30
2022-09-21T21:43:12.958Z,6.80
2022-09-21T21:45:42.743Z,5.13
2022-09-21T21:48:12.584Z,5.00
2022-09-21T21:50:44.872Z,6.32
2022-09-21T21:53:14.985Z,6.32
2022-09-21T21:55:44.676Z,5.60
2022-09-21T21:58:14.409Z,6.50
2022-09-21T22:00:44.214Z,5.50
2022-09-21T22:03:13.980Z,6.22
2022-09-21T22:05:47.057Z,5.43
2022-09-21T22:08:17.484Z,5.72
2022-09-21T22:10:51.766Z,5.90
2022-09-21T22:13:23.048Z,5.47
2022-09-21T22:15:53.025Z,7.57
2022-09-21T22:18:22.803Z,6.90
2022-09-21T22:20:55.118Z,6.60
2022-09-21T22:23:24.884Z,6.43
2022-09-21T22:25:54.633Z,5.78
2022-09-21T22:28:24.558Z,7.35
2022-09-21T22:30:54.557Z,7.40
2022-09-21T22:33:24.283Z,5.90
2022-09-21T22:35:56.605Z,6.60
2022-09-21T22:38:29.778Z,7.95
2022-09-21T22:40:59.567Z,9.13
2022-09-21T22:43:29.312Z,6.53
2022-09-21T22:45:59.087Z,5.32
2022-09-21T22:48:29.497Z,7.60
2022-09-21T22:51:02.063Z,9.40
2022-09-21T22:53:32.577Z,10.70
2022-09-21T22:56:08.709Z,5.90
2022-09-21T22:58:40.532Z,10.18
2022-09-21T23:01:12.481Z,7.65
2022-09-21T23:03:44.005Z,9.00
2022-09-21T23:06:19.537Z,12.07
2022-09-21T23:08:51.862Z,8.65
2022-09-21T23:11:24.275Z,6.90
2022-09-21T23:13:54.080Z,7.72
2022-09-21T23:16:23.918Z,8.68
2022-09-21T23:18:54.332Z,6.57
2022-09-21T23:21:28.869Z,6.40
2022-09-21T23:26:31.167Z,7.28
2022-09-21T23:29:02.902Z,11.13
2022-09-21T23:31:34.278Z,6.32
2022-09-21T23:34:08.535Z,5.45
2022-09-21T23:36:41.845Z,8.88
2022-09-21T23:39:14.027Z,6.35
2022-09-21T23:41:43.879Z,7.05
2022-09-21T23:44:13.883Z,6.80
2022-09-21T23:46:43.975Z,6.13
2022-09-21T23:49:13.802Z,6.00
2022-09-21T23:51:46.136Z,7.90
2022-09-21T23:54:16.272Z,9.18
2022-09-21T23:56:46.227Z,7.50
2022-09-21T23:59:15.981Z,5.78
